Weather History for Indianapolis, IN

Change the Weather History Date:

Monday, April 22, 2013

  Actual Average (KEYE) Record (KEYE)
Temperature  
Mean Temperature 50 °F 55 °F  
Max Temperature 66 °F 65 °F 81 °F (2001)
Min Temperature 35 °F 46 °F 34 °F (2013)
Degree Days  
Heating Degree Days 14 10  
Month to date heating degree days 298  
Since 1 July heating degree days 5123  
Cooling Degree Days 0 1  
Month to date cooling degree days 12  
Year to date cooling degree days 13  
Moisture  
Dew Point 30 °F    
Average Humidity 47    
Maximum Humidity 79    
Minimum Humidity 18    
Precipitation  
Precipitation 0.00 in 0.12 in 2.54 in (2005)
Month to date precipitation 2.58  
Year to date precipitation 10.22  
Sea Level Pressure  
Sea Level Pressure 30.24 in    
Wind  
Wind Speed 4 mph (SE)    
Max Wind Speed 9 mph    
Max Gust Speed -    
Visibility 9 miles    
Events      
T = Trace of Precipitation, MM = Missing Value Source: NWS Daily Summary

Daily Weather History Graph

Daily Weather History Graph

Search for Another Location

Airport:

Trip Planner

Search our weather history database for the weather conditions in past years. The results will help you decide how hot, cold, wet, or windy it might be!

Date:

Astronomy

Apr. 22, 2013 Rise Set
Actual Time 6:56 AM EDT 8:30 PM EDT
Civil Twilight 6:28 AM EDT 8:59 PM EDT
Nautical Twilight 5:53 AM EDT 9:34 PM EDT
Astronomical Twilight 5:17 AM EDT 10:10 PM EDT
Moon 5:19 PM EDT (4/22) 4:50 AM EDT (4/22)
Length of Visible Light 14h 31m
Length of Day
13h 34m
Waxing Gibbous, 87% of the Moon is Illuminated
Apr 22
Waxing Gibbous
Apr 25
Full
May 2
Last Quarter
May 9
New
May 18
First Quarter

Hourly Weather History & Observations

Time (EDT) Temp. Windchill Dew Point Humidity Pressure Visibility Wind Dir Wind Speed Gust Speed Precip Events Conditions
12:15 AM 43.2 °F 39.7 °F 29.3 °F 58% 30.37 in 7.0 mi East 5.8 mph - N/A   Clear
12:35 AM 43.0 °F 40.3 °F 29.5 °F 59% 30.36 in 10.0 mi East 4.6 mph - N/A   Clear
12:55 AM 42.4 °F 39.6 °F 29.3 °F 60% 30.36 in 10.0 mi East 4.6 mph - N/A   Clear
1:15 AM 41.9 °F 38.2 °F 29.1 °F 61% 30.36 in 7.0 mi East 5.8 mph - N/A   Clear
1:35 AM 41.9 °F 40.0 °F 28.4 °F 59% 30.36 in 10.0 mi East 3.5 mph - N/A   Clear
1:55 AM 40.8 °F 38.8 °F 28.8 °F 62% 30.36 in 10.0 mi East 3.5 mph - N/A   Clear
2:15 AM 40.1 °F 38.0 °F 28.8 °F 64% 30.35 in 10.0 mi East 3.5 mph - N/A   Clear
2:35 AM 40.1 °F - 28.4 °F 63% 30.35 in 10.0 mi Calm Calm - N/A   Clear
2:55 AM 38.8 °F - 29.1 °F 68% 30.34 in 10.0 mi Calm Calm - N/A   Clear
3:15 AM 37.9 °F - 29.1 °F 71% 30.34 in 10.0 mi Calm Calm - N/A   Clear
3:35 AM 38.1 °F - 28.2 °F 68% 30.33 in 10.0 mi Calm Calm - N/A   Clear
3:55 AM 38.3 °F - 28.4 °F 68% 30.32 in 10.0 mi Calm Calm - N/A   Clear
4:15 AM 38.1 °F - 28.0 °F 67% 30.32 in 10.0 mi Calm Calm - N/A   Clear
4:35 AM 37.9 °F - 27.7 °F 67% 30.32 in 10.0 mi Calm Calm - N/A   Clear
4:55 AM 37.9 °F - 27.5 °F 66% 30.31 in 10.0 mi Calm Calm - N/A   Clear
5:15 AM 36.5 °F - 28.0 °F 71% 30.31 in 10.0 mi Calm Calm - N/A   Clear
5:35 AM 35.1 °F - 29.1 °F 79% 30.31 in 10.0 mi Calm Calm - N/A   Clear
5:55 AM 36.5 °F - 28.4 °F 72% 30.31 in 10.0 mi Calm Calm - N/A   Clear
6:15 AM 36.7 °F - 27.9 °F 70% 30.32 in 5.0 mi Calm Calm - N/A   Haze
6:35 AM 36.0 °F 33.3 °F 27.9 °F 72% 30.31 in 5.0 mi East 3.5 mph - N/A   Haze
6:55 AM 35.6 °F 32.8 °F 28.4 °F 75% 30.31 in 10.0 mi East 3.5 mph - N/A   Clear
7:15 AM 36.9 °F 34.3 °F 27.3 °F 68% 30.31 in 10.0 mi East 3.5 mph - N/A   Clear
7:35 AM 37.8 °F - 27.1 °F 66% 30.31 in 10.0 mi Calm Calm - N/A   Clear
7:55 AM 38.7 °F - 28.9 °F 68% 30.31 in 10.0 mi Calm Calm - N/A   Clear
8:15 AM 40.8 °F - 29.7 °F 64% 30.32 in 10.0 mi Calm Calm - N/A   Clear
8:35 AM 42.8 °F 40.1 °F 29.7 °F 60% 30.31 in 10.0 mi ESE 4.6 mph - N/A   Clear
8:55 AM 43.9 °F 41.3 °F 30.4 °F 59% 30.31 in 7.0 mi ESE 4.6 mph - N/A   Clear
9:15 AM 46.6 °F - 29.8 °F 52% 30.31 in 10.0 mi ESE 5.8 mph - N/A   Clear
9:35 AM 48.0 °F - 29.1 °F 48% 30.31 in 10.0 mi SE 4.6 mph - N/A   Clear
9:55 AM 49.6 °F - 28.9 °F 45% 30.31 in 7.0 mi SE 5.8 mph - N/A   Clear
10:15 AM 51.6 °F - 29.8 °F 43% 30.31 in 10.0 mi SSE 6.9 mph - N/A   Clear
10:35 AM 52.5 °F - 29.7 °F 42% 30.30 in 7.0 mi SE 6.9 mph - N/A   Clear
10:55 AM 54.0 °F - 29.5 °F 39% 30.30 in 7.0 mi SSE 5.8 mph - N/A   Clear
11:15 AM 55.4 °F - 30.0 °F 38% 30.30 in 7.0 mi SE 4.6 mph - N/A   Clear
11:35 AM 57.0 °F - 29.7 °F 35% 30.30 in 7.0 mi SE 3.5 mph - N/A   Clear
11:55 AM 57.6 °F - 29.7 °F 35% 30.30 in 10.0 mi SE 4.6 mph - N/A   Clear
12:15 PM 58.5 °F - 28.0 °F 31% 30.29 in 10.0 mi Calm Calm - N/A   Clear
12:35 PM 59.9 °F - 30.7 °F 33% 30.28 in 10.0 mi ENE 4.6 mph - N/A   Clear
12:55 PM 60.4 °F - 30.6 °F 32% 30.27 in 7.0 mi ESE 5.8 mph - N/A   Clear
1:15 PM 61.3 °F - 29.8 °F 30% 30.26 in 10.0 mi South 5.8 mph - N/A   Clear
1:35 PM 61.7 °F - 30.4 °F 31% 30.25 in 10.0 mi SE 8.1 mph - N/A   Clear
1:55 PM 62.4 °F - 31.3 °F 31% 30.24 in 10.0 mi SE 8.1 mph - N/A   Clear
2:15 PM 63.0 °F - 31.3 °F 30% 30.23 in 10.0 mi South 6.9 mph - N/A   Clear
2:35 PM 63.5 °F - 30.0 °F 28% 30.23 in 10.0 mi South 4.6 mph - N/A   Clear
2:55 PM 64.2 °F - 32.0 °F 30% 30.22 in 10.0 mi SE 5.8 mph - N/A   Clear
3:15 PM 64.4 °F - 28.9 °F 26% 30.21 in 10.0 mi SE 5.8 mph - N/A   Clear
3:35 PM 65.3 °F - 31.1 °F 28% 30.21 in 10.0 mi SE 5.8 mph - N/A   Clear
3:55 PM 65.7 °F - 30.0 °F 26% 30.19 in 10.0 mi South 8.1 mph - N/A   Clear
4:15 PM 65.8 °F - 28.9 °F 25% 30.18 in 10.0 mi SSW 4.6 mph - N/A   Clear
4:35 PM 66.2 °F - 30.2 °F 26% 30.17 in 7.0 mi South 8.1 mph - N/A   Clear
4:55 PM 66.4 °F - 28.9 °F 25% 30.16 in 10.0 mi SE 6.9 mph - N/A   Clear
5:15 PM 66.4 °F - 28.4 °F 24% 30.16 in 10.0 mi SSE 9.2 mph - N/A   Clear
5:35 PM 66.6 °F - 21.4 °F 18% 30.15 in 10.0 mi South 5.8 mph - N/A   Clear
5:55 PM 66.6 °F - 24.6 °F 20% 30.14 in 10.0 mi ESE 8.1 mph - N/A   Clear
6:15 PM 66.7 °F - 30.0 °F 25% 30.14 in 10.0 mi South 9.2 mph - N/A   Clear
6:35 PM 66.6 °F - 30.0 °F 26% 30.13 in 10.0 mi SE 9.2 mph - N/A   Clear
6:55 PM 66.2 °F - 33.1 °F 29% 30.12 in 10.0 mi SSE 6.9 mph - N/A   Clear
7:15 PM 65.7 °F - 31.5 °F 28% 30.11 in 10.0 mi SE 8.1 mph - N/A   Clear
7:35 PM 64.8 °F - 33.1 °F 31% 30.11 in 7.0 mi ESE 9.2 mph - N/A   Clear
7:55 PM 63.5 °F - 35.1 °F 35% 30.11 in 10.0 mi SE 6.9 mph - N/A   Clear
8:15 PM 62.2 °F - 34.3 °F 35% 30.11 in 10.0 mi SE 4.6 mph - N/A   Clear
8:35 PM 60.6 °F - 35.4 °F 39% 30.11 in 10.0 mi SE 4.6 mph - N/A   Clear
8:55 PM 59.4 °F - 35.1 °F 40% 30.11 in 10.0 mi ESE 5.8 mph - N/A   Clear
9:15 PM 59.0 °F - 32.2 °F 36% 30.11 in 10.0 mi ESE 3.5 mph - N/A   Clear
9:35 PM 57.0 °F - 34.7 °F 43% 30.13 in 10.0 mi Calm Calm - N/A   Clear
9:55 PM 55.0 °F - 36.7 °F 50% 30.12 in 10.0 mi Calm Calm - N/A   Clear
10:15 PM 54.0 °F - 37.4 °F 54% 30.12 in 10.0 mi East 3.5 mph - N/A   Clear
10:35 PM 52.7 °F - 38.7 °F 59% 30.12 in 7.0 mi ESE 4.6 mph - N/A   Clear
10:55 PM 52.7 °F - 38.1 °F 58% 30.12 in 10.0 mi ESE 3.5 mph - N/A   Clear
11:15 PM 52.5 °F - 36.1 °F 54% 30.12 in 7.0 mi SE 3.5 mph - N/A   Clear
11:35 PM 51.1 °F - 37.0 °F 59% 30.12 in 10.0 mi SE 3.5 mph - N/A   Clear
11:55 PM 52.7 °F - 35.4 °F 52% 30.12 in 10.0 mi SE 3.5 mph - N/A   Clear